Bunnell, Florida
Current Conditions -  °F | °C
As of 3:50 PM on Thursday 23 Oct 2014 (Local Time) from KXFL Reporting Station
Clear Clear  
Wind Chill: 75°   Ceiling: Unl
Heat Index: 75°   Visibility: 7mi
Dew Point: 54°   Wind: 9mph
Humidity: 47%   Direction: 20°NNE
Pressure: 29.97"   Gusts: NA
Location:  29.47°N, 81.26°W
Report Text: KXFL 231950Z 02008KT 010V120 7SM CLR 24/12 A2997
Loading
Personal Weather Stations






























Interactive Weather Map
Tropical Storm Tracking
New forecast layout! Learn more

10-Day Weather Forecast

Advertisements
Track Severe Weather on mobile